sensor_id;sensor_type;location;lat;lon;timestamp;P1;durP1;ratioP1;P2;durP2;ratioP2
59271;SDS011;45043;51.068;7.026;2022-08-01T00:00:17;3.17;;;2.87;;
59271;SDS011;45043;51.068;7.026;2022-08-01T00:03:18;4.83;;;3.30;;
59271;SDS011;45043;51.068;7.026;2022-08-01T00:06:18;3.70;;;3.17;;
59271;SDS011;45043;51.068;7.026;2022-08-01T00:09:19;7.07;;;3.20;;
59271;SDS011;45043;51.068;7.026;2022-08-01T00:12:20;4.73;;;3.20;;
59271;SDS011;45043;51.068;7.026;2022-08-01T00:15:23;4.03;;;2.80;;
59271;SDS011;45043;51.068;7.026;2022-08-01T00:18:24;4.73;;;3.27;;
59271;SDS011;45043;51.068;7.026;2022-08-01T00:21:34;4.37;;;3.30;;
59271;SDS011;45043;51.068;7.026;2022-08-01T00:24:38;4.10;;;3.60;;
59271;SDS011;45043;51.068;7.026;2022-08-01T00:27:41;4.40;;;3.40;;
59271;SDS011;45043;51.068;7.026;2022-08-01T00:30:45;4.00;;;3.60;;
59271;SDS011;45043;51.068;7.026;2022-08-01T00:40:57;5.03;;;3.83;;
59271;SDS011;45043;51.068;7.026;2022-08-01T00:44:07;7.27;;;3.80;;
59271;SDS011;45043;51.068;7.026;2022-08-01T00:47:11;3.90;;;3.37;;
59271;SDS011;45043;51.068;7.026;2022-08-01T00:50:14;4.63;;;3.70;;
59271;SDS011;45043;51.068;7.026;2022-08-01T01:04:40;4.67;;;3.20;;
59271;SDS011;45043;51.068;7.026;2022-08-01T01:15:50;5.43;;;2.90;;
59271;SDS011;45043;51.068;7.026;2022-08-01T01:19:21;3.07;;;2.80;;
59271;SDS011;45043;51.068;7.026;2022-08-01T01:27:10;4.17;;;3.77;;
59271;SDS011;45043;51.068;7.026;2022-08-01T01:34:15;5.00;;;3.70;;
59271;SDS011;45043;51.068;7.026;2022-08-01T01:41:45;4.40;;;4.00;;
59271;SDS011;45043;51.068;7.026;2022-08-01T01:44:47;5.83;;;4.30;;
59271;SDS011;45043;51.068;7.026;2022-08-01T01:47:52;4.30;;;3.90;;
59271;SDS011;45043;51.068;7.026;2022-08-01T01:50:57;6.13;;;4.57;;
59271;SDS011;45043;51.068;7.026;2022-08-01T01:57:31;8.33;;;4.80;;
59271;SDS011;45043;51.068;7.026;2022-08-01T02:00:37;5.17;;;4.67;;
59271;SDS011;45043;51.068;7.026;2022-08-01T02:03:39;5.83;;;4.60;;
59271;SDS011;45043;51.068;7.026;2022-08-01T02:06:43;5.20;;;4.00;;
59271;SDS011;45043;51.068;7.026;2022-08-01T02:09:46;6.00;;;4.37;;
59271;SDS011;45043;51.068;7.026;2022-08-01T02:12:48;5.53;;;3.73;;
59271;SDS011;45043;51.068;7.026;2022-08-01T02:15:50;5.03;;;3.73;;
59271;SDS011;45043;51.068;7.026;2022-08-01T02:18:51;4.60;;;3.17;;
59271;SDS011;45043;51.068;7.026;2022-08-01T02:21:55;5.43;;;3.70;;
59271;SDS011;45043;51.068;7.026;2022-08-01T02:25:19;4.10;;;3.47;;
59271;SDS011;45043;51.068;7.026;2022-08-01T02:28:31;6.90;;;3.53;;
59271;SDS011;45043;51.068;7.026;2022-08-01T02:31:38;4.40;;;3.57;;
59271;SDS011;45043;51.068;7.026;2022-08-01T02:34:42;5.60;;;3.60;;
59271;SDS011;45043;51.068;7.026;2022-08-01T02:37:46;4.47;;;3.90;;
59271;SDS011;45043;51.068;7.026;2022-08-01T02:40:52;4.03;;;3.30;;
59271;SDS011;45043;51.068;7.026;2022-08-01T02:44:02;4.90;;;3.67;;
59271;SDS011;45043;51.068;7.026;2022-08-01T02:47:06;4.87;;;3.90;;
59271;SDS011;45043;51.068;7.026;2022-08-01T02:50:07;4.43;;;4.03;;
59271;SDS011;45043;51.068;7.026;2022-08-01T02:53:10;4.70;;;4.27;;
59271;SDS011;45043;51.068;7.026;2022-08-01T02:56:13;5.37;;;4.40;;
59271;SDS011;45043;51.068;7.026;2022-08-01T02:59:16;7.27;;;4.70;;
59271;SDS011;45043;51.068;7.026;2022-08-01T03:02:19;8.03;;;4.27;;
59271;SDS011;45043;51.068;7.026;2022-08-01T03:05:23;9.67;;;4.97;;
59271;SDS011;45043;51.068;7.026;2022-08-01T03:08:25;5.27;;;4.70;;
59271;SDS011;45043;51.068;7.026;2022-08-01T03:11:29;5.73;;;5.23;;
59271;SDS011;45043;51.068;7.026;2022-08-01T03:14:31;5.43;;;4.40;;
59271;SDS011;45043;51.068;7.026;2022-08-01T03:17:36;7.83;;;4.83;;
59271;SDS011;45043;51.068;7.026;2022-08-01T03:20:41;6.80;;;4.57;;
59271;SDS011;45043;51.068;7.026;2022-08-01T03:23:43;5.27;;;4.73;;
59271;SDS011;45043;51.068;7.026;2022-08-01T03:26:45;6.00;;;5.20;;
59271;SDS011;45043;51.068;7.026;2022-08-01T03:29:50;11.00;;;5.53;;
59271;SDS011;45043;51.068;7.026;2022-08-01T03:32:55;7.40;;;5.83;;
59271;SDS011;45043;51.068;7.026;2022-08-01T03:35:56;6.67;;;5.97;;
59271;SDS011;45043;51.068;7.026;2022-08-01T03:39:02;7.80;;;6.90;;
59271;SDS011;45043;51.068;7.026;2022-08-01T03:42:07;7.80;;;6.67;;
59271;SDS011;45043;51.068;7.026;2022-08-01T03:45:23;10.63;;;6.97;;
59271;SDS011;45043;51.068;7.026;2022-08-01T03:48:28;7.27;;;6.53;;
59271;SDS011;45043;51.068;7.026;2022-08-01T03:51:31;12.03;;;7.13;;
59271;SDS011;45043;51.068;7.026;2022-08-01T03:54:34;8.73;;;6.90;;
59271;SDS011;45043;51.068;7.026;2022-08-01T03:57:42;7.93;;;5.87;;
59271;SDS011;45043;51.068;7.026;2022-08-01T04:00:44;8.97;;;7.70;;
59271;SDS011;45043;51.068;7.026;2022-08-01T04:03:46;7.90;;;7.20;;
59271;SDS011;45043;51.068;7.026;2022-08-01T04:06:47;11.47;;;7.33;;
59271;SDS011;45043;51.068;7.026;2022-08-01T04:09:51;9.30;;;7.87;;
59271;SDS011;45043;51.068;7.026;2022-08-01T04:12:52;11.67;;;8.40;;
59271;SDS011;45043;51.068;7.026;2022-08-01T04:15:52;9.67;;;8.20;;
59271;SDS011;45043;51.068;7.026;2022-08-01T04:18:53;8.53;;;7.43;;
59271;SDS011;45043;51.068;7.026;2022-08-01T04:21:54;9.23;;;8.13;;
59271;SDS011;45043;51.068;7.026;2022-08-01T04:24:56;8.23;;;7.40;;
59271;SDS011;45043;51.068;7.026;2022-08-01T04:28:00;9.37;;;7.07;;
59271;SDS011;45043;51.068;7.026;2022-08-01T04:31:06;8.47;;;7.10;;
59271;SDS011;45043;51.068;7.026;2022-08-01T04:34:12;10.13;;;8.20;;
59271;SDS011;45043;51.068;7.026;2022-08-01T04:37:17;12.00;;;8.07;;
59271;SDS011;45043;51.068;7.026;2022-08-01T04:40:19;13.23;;;8.40;;
59271;SDS011;45043;51.068;7.026;2022-08-01T04:43:22;10.07;;;9.00;;
59271;SDS011;45043;51.068;7.026;2022-08-01T04:46:23;10.33;;;8.93;;
59271;SDS011;45043;51.068;7.026;2022-08-01T04:49:23;9.83;;;8.83;;
59271;SDS011;45043;51.068;7.026;2022-08-01T04:52:32;10.83;;;9.23;;
59271;SDS011;45043;51.068;7.026;2022-08-01T04:55:33;12.70;;;9.60;;
59271;SDS011;45043;51.068;7.026;2022-08-01T04:58:37;11.00;;;9.80;;
59271;SDS011;45043;51.068;7.026;2022-08-01T05:01:37;12.77;;;9.40;;
59271;SDS011;45043;51.068;7.026;2022-08-01T05:04:38;11.23;;;9.87;;
59271;SDS011;45043;51.068;7.026;2022-08-01T05:07:43;16.57;;;10.73;;
59271;SDS011;45043;51.068;7.026;2022-08-01T05:10:43;12.13;;;10.10;;
59271;SDS011;45043;51.068;7.026;2022-08-01T05:13:47;11.10;;;9.90;;
59271;SDS011;45043;51.068;7.026;2022-08-01T05:16:48;10.77;;;9.67;;
59271;SDS011;45043;51.068;7.026;2022-08-01T05:19:52;12.10;;;9.50;;
59271;SDS011;45043;51.068;7.026;2022-08-01T05:22:52;11.87;;;10.53;;
59271;SDS011;45043;51.068;7.026;2022-08-01T05:25:56;11.77;;;10.60;;
59271;SDS011;45043;51.068;7.026;2022-08-01T05:29:01;12.50;;;11.23;;
59271;SDS011;45043;51.068;7.026;2022-08-01T05:32:02;14.27;;;10.73;;
59271;SDS011;45043;51.068;7.026;2022-08-01T05:35:03;12.47;;;11.17;;
59271;SDS011;45043;51.068;7.026;2022-08-01T05:38:07;14.70;;;11.50;;
59271;SDS011;45043;51.068;7.026;2022-08-01T05:41:14;12.40;;;11.10;;
59271;SDS011;45043;51.068;7.026;2022-08-01T05:44:17;16.70;;;11.67;;
59271;SDS011;45043;51.068;7.026;2022-08-01T05:47:21;13.30;;;10.97;;
59271;SDS011;45043;51.068;7.026;2022-08-01T05:50:22;13.77;;;11.50;;
59271;SDS011;45043;51.068;7.026;2022-08-01T05:53:22;12.23;;;10.93;;
59271;SDS011;45043;51.068;7.026;2022-08-01T05:56:23;16.43;;;12.10;;
59271;SDS011;45043;51.068;7.026;2022-08-01T05:59:28;14.90;;;11.37;;
59271;SDS011;45043;51.068;7.026;2022-08-01T06:06:23;15.97;;;11.67;;
59271;SDS011;45043;51.068;7.026;2022-08-01T06:09:26;13.27;;;11.33;;
59271;SDS011;45043;51.068;7.026;2022-08-01T06:12:55;13.20;;;11.60;;
59271;SDS011;45043;51.068;7.026;2022-08-01T06:16:29;12.87;;;11.60;;
59271;SDS011;45043;51.068;7.026;2022-08-01T06:19:26;16.30;;;12.40;;
59271;SDS011;45043;51.068;7.026;2022-08-01T06:22:33;13.50;;;12.10;;
59271;SDS011;45043;51.068;7.026;2022-08-01T06:25:41;14.17;;;11.53;;
59271;SDS011;45043;51.068;7.026;2022-08-01T06:28:42;16.63;;;12.83;;
59271;SDS011;45043;51.068;7.026;2022-08-01T06:31:42;15.07;;;11.27;;
59271;SDS011;45043;51.068;7.026;2022-08-01T06:34:43;13.13;;;11.83;;
59271;SDS011;45043;51.068;7.026;2022-08-01T06:37:46;15.00;;;11.90;;
59271;SDS011;45043;51.068;7.026;2022-08-01T06:40:47;14.97;;;12.63;;
59271;SDS011;45043;51.068;7.026;2022-08-01T06:43:50;14.33;;;12.60;;
59271;SDS011;45043;51.068;7.026;2022-08-01T06:46:50;13.10;;;11.57;;
59271;SDS011;45043;51.068;7.026;2022-08-01T06:49:51;13.17;;;11.27;;
59271;SDS011;45043;51.068;7.026;2022-08-01T06:52:51;12.60;;;11.30;;
59271;SDS011;45043;51.068;7.026;2022-08-01T06:55:52;13.47;;;12.27;;
59271;SDS011;45043;51.068;7.026;2022-08-01T06:58:52;11.27;;;10.20;;
59271;SDS011;45043;51.068;7.026;2022-08-01T07:01:53;11.97;;;10.83;;
59271;SDS011;45043;51.068;7.026;2022-08-01T07:04:53;12.17;;;10.90;;
59271;SDS011;45043;51.068;7.026;2022-08-01T07:07:53;12.87;;;11.47;;
59271;SDS011;45043;51.068;7.026;2022-08-01T07:10:54;12.00;;;10.70;;
59271;SDS011;45043;51.068;7.026;2022-08-01T07:13:55;12.43;;;11.10;;
59271;SDS011;45043;51.068;7.026;2022-08-01T07:16:57;13.57;;;11.27;;
59271;SDS011;45043;51.068;7.026;2022-08-01T07:19:57;14.93;;;11.07;;
59271;SDS011;45043;51.068;7.026;2022-08-01T07:22:57;12.03;;;10.80;;
59271;SDS011;45043;51.068;7.026;2022-08-01T07:25:58;11.80;;;10.60;;
59271;SDS011;45043;51.068;7.026;2022-08-01T07:28:59;11.30;;;10.20;;
59271;SDS011;45043;51.068;7.026;2022-08-01T07:31:59;11.83;;;10.67;;
59271;SDS011;45043;51.068;7.026;2022-08-01T07:35:01;12.07;;;10.90;;
59271;SDS011;45043;51.068;7.026;2022-08-01T07:38:02;12.13;;;11.00;;
59271;SDS011;45043;51.068;7.026;2022-08-01T07:41:02;9.80;;;8.80;;
59271;SDS011;45043;51.068;7.026;2022-08-01T07:44:03;10.67;;;9.57;;
59271;SDS011;45043;51.068;7.026;2022-08-01T07:47:05;12.47;;;9.87;;
59271;SDS011;45043;51.068;7.026;2022-08-01T07:50:05;16.93;;;10.27;;
59271;SDS011;45043;51.068;7.026;2022-08-01T07:53:06;12.77;;;10.17;;
59271;SDS011;45043;51.068;7.026;2022-08-01T07:56:07;10.27;;;9.23;;
59271;SDS011;45043;51.068;7.026;2022-08-01T07:59:07;12.47;;;9.93;;
59271;SDS011;45043;51.068;7.026;2022-08-01T08:02:08;12.03;;;10.60;;
59271;SDS011;45043;51.068;7.026;2022-08-01T08:05:09;11.90;;;10.57;;
59271;SDS011;45043;51.068;7.026;2022-08-01T08:08:10;11.47;;;9.80;;
59271;SDS011;45043;51.068;7.026;2022-08-01T08:11:13;11.20;;;10.00;;
59271;SDS011;45043;51.068;7.026;2022-08-01T08:14:15;11.10;;;10.00;;
59271;SDS011;45043;51.068;7.026;2022-08-01T08:17:16;11.63;;;10.53;;
59271;SDS011;45043;51.068;7.026;2022-08-01T08:20:17;10.40;;;9.50;;
59271;SDS011;45043;51.068;7.026;2022-08-01T08:23:17;8.73;;;8.03;;
59271;SDS011;45043;51.068;7.026;2022-08-01T08:26:40;10.57;;;9.70;;
59271;SDS011;45043;51.068;7.026;2022-08-01T08:29:40;9.97;;;8.97;;
59271;SDS011;45043;51.068;7.026;2022-08-01T08:32:41;10.47;;;9.50;;
59271;SDS011;45043;51.068;7.026;2022-08-01T08:35:42;9.80;;;8.90;;
59271;SDS011;45043;51.068;7.026;2022-08-01T08:38:42;9.90;;;9.10;;
59271;SDS011;45043;51.068;7.026;2022-08-01T08:41:43;10.17;;;9.17;;
59271;SDS011;45043;51.068;7.026;2022-08-01T08:44:44;8.30;;;7.60;;
59271;SDS011;45043;51.068;7.026;2022-08-01T08:47:44;8.43;;;7.73;;
59271;SDS011;45043;51.068;7.026;2022-08-01T08:50:48;8.53;;;7.73;;
59271;SDS011;45043;51.068;7.026;2022-08-01T08:53:51;7.03;;;6.33;;
59271;SDS011;45043;51.068;7.026;2022-08-01T08:56:55;6.87;;;6.17;;
59271;SDS011;45043;51.068;7.026;2022-08-01T08:59:56;6.73;;;6.20;;
59271;SDS011;45043;51.068;7.026;2022-08-01T09:02:57;6.83;;;6.33;;
59271;SDS011;45043;51.068;7.026;2022-08-01T09:05:57;6.60;;;6.10;;
59271;SDS011;45043;51.068;7.026;2022-08-01T09:08:58;6.07;;;5.57;;
59271;SDS011;45043;51.068;7.026;2022-08-01T09:11:59;5.77;;;5.17;;
59271;SDS011;45043;51.068;7.026;2022-08-01T09:15:00;4.50;;;4.10;;
59271;SDS011;45043;51.068;7.026;2022-08-01T09:18:01;5.57;;;4.97;;
59271;SDS011;45043;51.068;7.026;2022-08-01T09:24:17;5.67;;;5.03;;
59271;SDS011;45043;51.068;7.026;2022-08-01T09:27:19;5.10;;;4.60;;
59271;SDS011;45043;51.068;7.026;2022-08-01T09:30:23;5.03;;;4.27;;
59271;SDS011;45043;51.068;7.026;2022-08-01T09:33:24;4.90;;;4.40;;
59271;SDS011;45043;51.068;7.026;2022-08-01T09:36:25;5.13;;;4.73;;
59271;SDS011;45043;51.068;7.026;2022-08-01T09:39:28;6.80;;;5.30;;
59271;SDS011;45043;51.068;7.026;2022-08-01T09:42:30;5.10;;;4.60;;
59271;SDS011;45043;51.068;7.026;2022-08-01T09:45:33;6.00;;;5.40;;
59271;SDS011;45043;51.068;7.026;2022-08-01T09:48:38;5.20;;;4.70;;
59271;SDS011;45043;51.068;7.026;2022-08-01T09:51:57;4.97;;;4.40;;
59271;SDS011;45043;51.068;7.026;2022-08-01T09:55:00;5.50;;;4.60;;
59271;SDS011;45043;51.068;7.026;2022-08-01T09:58:03;5.70;;;5.00;;
59271;SDS011;45043;51.068;7.026;2022-08-01T10:01:06;5.13;;;4.73;;
59271;SDS011;45043;51.068;7.026;2022-08-01T10:04:13;5.10;;;4.70;;
59271;SDS011;45043;51.068;7.026;2022-08-01T10:07:15;5.07;;;4.57;;
59271;SDS011;45043;51.068;7.026;2022-08-01T10:10:20;6.27;;;4.90;;
59271;SDS011;45043;51.068;7.026;2022-08-01T10:13:20;6.97;;;5.53;;
59271;SDS011;45043;51.068;7.026;2022-08-01T10:16:21;6.73;;;5.23;;
59271;SDS011;45043;51.068;7.026;2022-08-01T10:19:23;8.57;;;5.60;;
59271;SDS011;45043;51.068;7.026;2022-08-01T10:22:25;5.77;;;5.03;;
59271;SDS011;45043;51.068;7.026;2022-08-01T10:25:33;5.60;;;4.30;;
59271;SDS011;45043;51.068;7.026;2022-08-01T10:28:40;4.80;;;4.40;;
59271;SDS011;45043;51.068;7.026;2022-08-01T10:31:44;8.00;;;4.50;;
59271;SDS011;45043;51.068;7.026;2022-08-01T10:34:46;4.13;;;3.73;;
59271;SDS011;45043;51.068;7.026;2022-08-01T10:37:47;4.67;;;4.17;;
59271;SDS011;45043;51.068;7.026;2022-08-01T10:40:50;4.33;;;3.93;;
59271;SDS011;45043;51.068;7.026;2022-08-01T10:43:53;4.60;;;4.20;;
59271;SDS011;45043;51.068;7.026;2022-08-01T10:46:57;4.90;;;4.40;;
59271;SDS011;45043;51.068;7.026;2022-08-01T10:50:19;4.43;;;3.60;;
59271;SDS011;45043;51.068;7.026;2022-08-01T10:53:27;4.70;;;3.90;;
59271;SDS011;45043;51.068;7.026;2022-08-01T10:56:38;5.00;;;4.10;;
59271;SDS011;45043;51.068;7.026;2022-08-01T10:59:49;3.63;;;3.40;;
59271;SDS011;45043;51.068;7.026;2022-08-01T11:02:58;4.50;;;3.50;;
59271;SDS011;45043;51.068;7.026;2022-08-01T11:06:00;4.43;;;4.03;;
59271;SDS011;45043;51.068;7.026;2022-08-01T11:09:05;5.10;;;4.57;;
59271;SDS011;45043;51.068;7.026;2022-08-01T11:12:21;4.10;;;3.80;;
59271;SDS011;45043;51.068;7.026;2022-08-01T11:15:42;4.50;;;4.10;;
59271;SDS011;45043;51.068;7.026;2022-08-01T11:18:49;4.67;;;3.93;;
59271;SDS011;45043;51.068;7.026;2022-08-01T11:24:54;4.03;;;3.63;;
59271;SDS011;45043;51.068;7.026;2022-08-01T11:34:20;4.83;;;3.20;;
59271;SDS011;45043;51.068;7.026;2022-08-01T11:37:53;5.00;;;3.90;;
59271;SDS011;45043;51.068;7.026;2022-08-01T11:44:21;4.53;;;3.40;;
59271;SDS011;45043;51.068;7.026;2022-08-01T11:47:58;3.70;;;3.40;;
59271;SDS011;45043;51.068;7.026;2022-08-01T11:50:52;2.97;;;2.77;;
59271;SDS011;45043;51.068;7.026;2022-08-01T11:53:54;2.83;;;2.63;;
59271;SDS011;45043;51.068;7.026;2022-08-01T11:56:59;3.00;;;2.80;;
59271;SDS011;45043;51.068;7.026;2022-08-01T12:00:05;3.00;;;2.70;;
59271;SDS011;45043;51.068;7.026;2022-08-01T12:03:14;3.00;;;2.57;;
59271;SDS011;45043;51.068;7.026;2022-08-01T12:06:20;2.93;;;2.60;;
59271;SDS011;45043;51.068;7.026;2022-08-01T12:09:27;3.17;;;2.40;;
59271;SDS011;45043;51.068;7.026;2022-08-01T12:12:28;4.43;;;2.47;;
59271;SDS011;45043;51.068;7.026;2022-08-01T12:15:30;2.80;;;2.57;;
59271;SDS011;45043;51.068;7.026;2022-08-01T12:18:37;3.13;;;2.50;;
59271;SDS011;45043;51.068;7.026;2022-08-01T12:21:42;3.40;;;2.53;;
59271;SDS011;45043;51.068;7.026;2022-08-01T12:24:43;4.07;;;2.70;;
59271;SDS011;45043;51.068;7.026;2022-08-01T12:27:46;2.70;;;2.50;;
59271;SDS011;45043;51.068;7.026;2022-08-01T12:30:48;2.37;;;2.17;;
59271;SDS011;45043;51.068;7.026;2022-08-01T12:33:49;2.40;;;2.23;;
59271;SDS011;45043;51.068;7.026;2022-08-01T12:36:59;1.90;;;1.80;;
59271;SDS011;45043;51.068;7.026;2022-08-01T12:40:06;1.87;;;1.77;;
59271;SDS011;45043;51.068;7.026;2022-08-01T12:43:10;2.20;;;2.00;;
59271;SDS011;45043;51.068;7.026;2022-08-01T12:46:16;1.90;;;1.80;;
59271;SDS011;45043;51.068;7.026;2022-08-01T12:49:17;6.07;;;1.70;;
59271;SDS011;45043;51.068;7.026;2022-08-01T12:52:18;5.60;;;1.90;;
59271;SDS011;45043;51.068;7.026;2022-08-01T12:55:25;2.73;;;1.80;;
59271;SDS011;45043;51.068;7.026;2022-08-01T12:58:33;2.47;;;1.70;;
59271;SDS011;45043;51.068;7.026;2022-08-01T13:01:33;1.90;;;1.70;;
59271;SDS011;45043;51.068;7.026;2022-08-01T13:04:42;1.83;;;1.60;;
59271;SDS011;45043;51.068;7.026;2022-08-01T13:07:50;2.47;;;1.80;;
59271;SDS011;45043;51.068;7.026;2022-08-01T13:10:59;1.80;;;1.70;;
59271;SDS011;45043;51.068;7.026;2022-08-01T13:14:01;3.93;;;1.80;;
59271;SDS011;45043;51.068;7.026;2022-08-01T13:17:02;3.20;;;1.87;;
59271;SDS011;45043;51.068;7.026;2022-08-01T13:20:03;3.53;;;2.17;;
59271;SDS011;45043;51.068;7.026;2022-08-01T13:23:14;2.43;;;2.07;;
59271;SDS011;45043;51.068;7.026;2022-08-01T13:26:16;3.30;;;2.20;;
59271;SDS011;45043;51.068;7.026;2022-08-01T13:29:17;4.47;;;2.20;;
59271;SDS011;45043;51.068;7.026;2022-08-01T13:32:20;3.10;;;2.00;;
59271;SDS011;45043;51.068;7.026;2022-08-01T13:35:21;4.03;;;2.30;;
59271;SDS011;45043;51.068;7.026;2022-08-01T13:38:22;3.27;;;1.80;;
59271;SDS011;45043;51.068;7.026;2022-08-01T13:41:41;3.97;;;1.83;;
59271;SDS011;45043;51.068;7.026;2022-08-01T13:44:42;2.77;;;1.67;;
59271;SDS011;45043;51.068;7.026;2022-08-01T13:47:46;1.53;;;1.47;;
59271;SDS011;45043;51.068;7.026;2022-08-01T13:50:46;5.10;;;1.67;;
59271;SDS011;45043;51.068;7.026;2022-08-01T13:53:47;1.70;;;1.60;;
59271;SDS011;45043;51.068;7.026;2022-08-01T13:56:47;1.83;;;1.73;;
59271;SDS011;45043;51.068;7.026;2022-08-01T13:59:48;1.73;;;1.30;;
59271;SDS011;45043;51.068;7.026;2022-08-01T14:02:48;1.70;;;1.60;;
59271;SDS011;45043;51.068;7.026;2022-08-01T14:05:49;1.80;;;1.70;;
59271;SDS011;45043;51.068;7.026;2022-08-01T14:08:49;2.33;;;1.70;;
59271;SDS011;45043;51.068;7.026;2022-08-01T14:11:50;1.70;;;1.60;;
59271;SDS011;45043;51.068;7.026;2022-08-01T14:14:51;2.67;;;2.17;;
59271;SDS011;45043;51.068;7.026;2022-08-01T14:17:51;2.30;;;2.10;;
59271;SDS011;45043;51.068;7.026;2022-08-01T14:20:52;4.70;;;2.13;;
59271;SDS011;45043;51.068;7.026;2022-08-01T14:23:52;4.17;;;2.20;;
59271;SDS011;45043;51.068;7.026;2022-08-01T14:26:53;2.43;;;2.23;;
59271;SDS011;45043;51.068;7.026;2022-08-01T14:29:53;3.53;;;1.90;;
59271;SDS011;45043;51.068;7.026;2022-08-01T14:32:57;2.10;;;2.00;;
59271;SDS011;45043;51.068;7.026;2022-08-01T14:36:00;2.23;;;1.80;;
59271;SDS011;45043;51.068;7.026;2022-08-01T14:39:00;2.30;;;1.83;;
59271;SDS011;45043;51.068;7.026;2022-08-01T14:42:01;2.20;;;1.63;;
59271;SDS011;45043;51.068;7.026;2022-08-01T14:45:02;1.90;;;1.80;;
59271;SDS011;45043;51.068;7.026;2022-08-01T14:48:08;3.17;;;1.90;;
59271;SDS011;45043;51.068;7.026;2022-08-01T14:51:08;2.70;;;2.00;;
59271;SDS011;45043;51.068;7.026;2022-08-01T14:54:09;3.50;;;2.37;;
59271;SDS011;45043;51.068;7.026;2022-08-01T14:57:09;2.20;;;2.00;;
59271;SDS011;45043;51.068;7.026;2022-08-01T15:00:10;1.90;;;1.80;;
59271;SDS011;45043;51.068;7.026;2022-08-01T15:03:14;2.60;;;2.40;;
59271;SDS011;45043;51.068;7.026;2022-08-01T15:06:14;2.40;;;2.20;;
59271;SDS011;45043;51.068;7.026;2022-08-01T15:09:14;3.73;;;2.43;;
59271;SDS011;45043;51.068;7.026;2022-08-01T15:12:18;4.77;;;2.50;;
59271;SDS011;45043;51.068;7.026;2022-08-01T15:15:18;2.07;;;1.90;;
59271;SDS011;45043;51.068;7.026;2022-08-01T15:18:19;2.27;;;2.07;;
59271;SDS011;45043;51.068;7.026;2022-08-01T15:21:19;2.67;;;2.00;;
59271;SDS011;45043;51.068;7.026;2022-08-01T15:24:22;2.60;;;2.40;;
59271;SDS011;45043;51.068;7.026;2022-08-01T15:27:23;2.37;;;1.90;;
59271;SDS011;45043;51.068;7.026;2022-08-01T15:30:24;2.60;;;2.40;;
59271;SDS011;45043;51.068;7.026;2022-08-01T15:33:28;2.97;;;2.67;;
59271;SDS011;45043;51.068;7.026;2022-08-01T15:36:28;3.07;;;2.77;;
59271;SDS011;45043;51.068;7.026;2022-08-01T15:39:29;2.83;;;2.63;;
59271;SDS011;45043;51.068;7.026;2022-08-01T15:42:32;2.53;;;2.37;;
59271;SDS011;45043;51.068;7.026;2022-08-01T15:45:34;2.80;;;2.60;;
59271;SDS011;45043;51.068;7.026;2022-08-01T15:48:35;3.93;;;3.57;;
59271;SDS011;45043;51.068;7.026;2022-08-01T15:51:35;2.90;;;2.70;;
59271;SDS011;45043;51.068;7.026;2022-08-01T15:54:36;3.20;;;3.00;;
59271;SDS011;45043;51.068;7.026;2022-08-01T15:57:37;3.07;;;2.67;;
59271;SDS011;45043;51.068;7.026;2022-08-01T16:00:37;2.70;;;2.50;;
59271;SDS011;45043;51.068;7.026;2022-08-01T16:03:38;2.83;;;2.60;;
59271;SDS011;45043;51.068;7.026;2022-08-01T16:06:39;3.23;;;2.93;;
59271;SDS011;45043;51.068;7.026;2022-08-01T16:09:39;3.23;;;2.90;;
59271;SDS011;45043;51.068;7.026;2022-08-01T16:12:40;2.67;;;2.47;;
59271;SDS011;45043;51.068;7.026;2022-08-01T16:15:40;4.07;;;2.80;;
59271;SDS011;45043;51.068;7.026;2022-08-01T16:18:41;4.30;;;3.00;;
59271;SDS011;45043;51.068;7.026;2022-08-01T16:21:41;2.80;;;2.60;;
59271;SDS011;45043;51.068;7.026;2022-08-01T16:24:42;4.50;;;3.50;;
59271;SDS011;45043;51.068;7.026;2022-08-01T16:27:42;3.03;;;2.73;;
59271;SDS011;45043;51.068;7.026;2022-08-01T16:30:43;3.30;;;3.00;;
59271;SDS011;45043;51.068;7.026;2022-08-01T16:33:44;4.10;;;2.90;;
59271;SDS011;45043;51.068;7.026;2022-08-01T16:36:47;3.70;;;3.40;;
59271;SDS011;45043;51.068;7.026;2022-08-01T16:39:52;3.63;;;3.30;;
59271;SDS011;45043;51.068;7.026;2022-08-01T16:42:52;3.20;;;3.00;;
59271;SDS011;45043;51.068;7.026;2022-08-01T16:45:53;3.80;;;3.50;;
59271;SDS011;45043;51.068;7.026;2022-08-01T16:48:53;5.33;;;3.63;;
59271;SDS011;45043;51.068;7.026;2022-08-01T16:51:54;3.50;;;3.20;;
59271;SDS011;45043;51.068;7.026;2022-08-01T16:54:55;4.67;;;3.47;;
59271;SDS011;45043;51.068;7.026;2022-08-01T16:57:57;4.17;;;3.70;;
59271;SDS011;45043;51.068;7.026;2022-08-01T17:00:58;3.80;;;3.60;;
59271;SDS011;45043;51.068;7.026;2022-08-01T17:03:58;4.07;;;3.80;;
59271;SDS011;45043;51.068;7.026;2022-08-01T17:07:00;3.77;;;3.47;;
59271;SDS011;45043;51.068;7.026;2022-08-01T17:10:00;3.23;;;2.93;;
59271;SDS011;45043;51.068;7.026;2022-08-01T17:13:01;3.20;;;3.00;;
59271;SDS011;45043;51.068;7.026;2022-08-01T17:16:03;3.17;;;2.90;;
59271;SDS011;45043;51.068;7.026;2022-08-01T17:19:04;3.40;;;3.20;;
59271;SDS011;45043;51.068;7.026;2022-08-01T17:22:05;3.57;;;3.27;;
59271;SDS011;45043;51.068;7.026;2022-08-01T17:25:05;3.23;;;3.03;;
59271;SDS011;45043;51.068;7.026;2022-08-01T17:28:09;3.47;;;3.17;;
59271;SDS011;45043;51.068;7.026;2022-08-01T17:31:10;4.57;;;3.10;;
59271;SDS011;45043;51.068;7.026;2022-08-01T17:34:10;6.73;;;3.87;;
59271;SDS011;45043;51.068;7.026;2022-08-01T17:37:11;3.87;;;3.50;;
59271;SDS011;45043;51.068;7.026;2022-08-01T17:40:12;3.27;;;3.07;;
59271;SDS011;45043;51.068;7.026;2022-08-01T17:43:12;4.33;;;3.10;;
59271;SDS011;45043;51.068;7.026;2022-08-01T17:46:16;3.40;;;3.10;;
59271;SDS011;45043;51.068;7.026;2022-08-01T17:49:23;4.27;;;3.50;;
59271;SDS011;45043;51.068;7.026;2022-08-01T17:52:27;3.73;;;3.43;;
59271;SDS011;45043;51.068;7.026;2022-08-01T17:55:27;3.33;;;3.10;;
59271;SDS011;45043;51.068;7.026;2022-08-01T17:58:30;4.60;;;3.73;;
59271;SDS011;45043;51.068;7.026;2022-08-01T18:01:31;4.07;;;3.23;;
59271;SDS011;45043;51.068;7.026;2022-08-01T18:04:32;3.40;;;3.20;;
59271;SDS011;45043;51.068;7.026;2022-08-01T18:07:33;4.93;;;3.40;;
59271;SDS011;45043;51.068;7.026;2022-08-01T18:10:33;3.70;;;2.80;;
59271;SDS011;45043;51.068;7.026;2022-08-01T18:13:34;3.37;;;2.70;;
59271;SDS011;45043;51.068;7.026;2022-08-01T18:16:34;3.10;;;2.40;;
59271;SDS011;45043;51.068;7.026;2022-08-01T18:19:35;4.33;;;2.83;;
59271;SDS011;45043;51.068;7.026;2022-08-01T18:22:47;2.70;;;2.50;;
59271;SDS011;45043;51.068;7.026;2022-08-01T18:25:48;11.27;;;2.73;;
59271;SDS011;45043;51.068;7.026;2022-08-01T18:28:48;2.80;;;2.60;;
59271;SDS011;45043;51.068;7.026;2022-08-01T18:31:49;2.80;;;2.60;;
59271;SDS011;45043;51.068;7.026;2022-08-01T18:34:50;2.67;;;2.47;;
59271;SDS011;45043;51.068;7.026;2022-08-01T18:37:51;2.60;;;2.40;;
59271;SDS011;45043;51.068;7.026;2022-08-01T18:40:52;3.30;;;2.57;;
59271;SDS011;45043;51.068;7.026;2022-08-01T18:43:53;2.77;;;2.57;;
59271;SDS011;45043;51.068;7.026;2022-08-01T18:46:54;3.60;;;2.50;;
59271;SDS011;45043;51.068;7.026;2022-08-01T18:49:55;6.63;;;2.77;;
59271;SDS011;45043;51.068;7.026;2022-08-01T18:52:57;2.60;;;2.00;;
59271;SDS011;45043;51.068;7.026;2022-08-01T18:55:58;4.83;;;2.40;;
59271;SDS011;45043;51.068;7.026;2022-08-01T18:58:58;2.20;;;2.00;;
59271;SDS011;45043;51.068;7.026;2022-08-01T19:01:59;4.13;;;2.63;;
59271;SDS011;45043;51.068;7.026;2022-08-01T19:05:00;2.97;;;2.20;;
59271;SDS011;45043;51.068;7.026;2022-08-01T19:08:01;3.73;;;1.83;;
59271;SDS011;45043;51.068;7.026;2022-08-01T19:11:01;3.10;;;2.30;;
59271;SDS011;45043;51.068;7.026;2022-08-01T19:14:02;3.70;;;2.40;;
59271;SDS011;45043;51.068;7.026;2022-08-01T19:17:03;2.40;;;2.20;;
59271;SDS011;45043;51.068;7.026;2022-08-01T19:20:04;2.53;;;2.27;;